Time;durP1;ratioP1;P1;durP2;ratioP2;P2;SDS_P1;SDS_P2;PMS_P1;PMS_P2;Temp;Humidity;BMP_temperature;BMP_pressure;BME280_temperature;BME280_humidity;BME280_pressure;Samples;Min_cycle;Max_cycle;Signal;HPM_P1;HPM_P2
2021/09/13 00:00:30;;;;;;;7.72;3.75;;;;;;;;;;5114058;28;20122;-65
2021/09/13 00:03:15;;;;;;;8.32;4.05;;;;;;;;;;5114308;28;20052;-64
2021/09/13 00:06:02;;;;;;;10.55;4.03;;;;;;;;;;5113958;28;20582;-64
2021/09/13 00:08:47;;;;;;;4.93;3.05;;;;;;;;;;5113899;28;20059;-64
2021/09/13 00:11:32;;;;;;;12.68;4.13;;;;;;;;;;5114101;28;20056;-64
2021/09/13 00:14:19;;;;;;;8.18;3.58;;;;;;;;;;5113528;28;20513;-64
2021/09/13 00:17:04;;;;;;;10.18;3.83;;;;;;;;;;5113795;28;20047;-65
2021/09/13 00:19:50;;;;;;;8.68;3.58;;;;;;;;;;5114111;28;20386;-65
2021/09/13 00:22:36;;;;;;;6.50;3.60;;;;;;;;;;5113837;28;20127;-65
2021/09/13 00:25:21;;;;;;;10.15;3.72;;;;;;;;;;5113345;28;20126;-64
2021/09/13 00:28:07;;;;;;;11.52;4.05;;;;;;;;;;5114000;28;20047;-65
2021/09/13 00:30:52;;;;;;;10.75;4.32;;;;;;;;;;5113693;28;20051;-64
2021/09/13 00:33:37;;;;;;;6.60;3.60;;;;;;;;;;5097861;28;20052;-65
2021/09/13 00:36:22;;;;;;;7.97;3.47;;;;;;;;;;5113218;28;20508;-64
2021/09/13 00:39:08;;;;;;;9.48;2.83;;;;;;;;;;5113469;28;20048;-65
2021/09/13 00:41:54;;;;;;;6.70;3.17;;;;;;;;;;5113394;28;20114;-64
2021/09/13 00:44:39;;;;;;;6.15;3.03;;;;;;;;;;5113039;28;20055;-65
2021/09/13 00:47:24;;;;;;;7.85;2.83;;;;;;;;;;5113046;28;20451;-64
2021/09/13 00:50:10;;;;;;;6.82;2.80;;;;;;;;;;5098259;28;20512;-64
2021/09/13 00:52:55;;;;;;;8.25;3.17;;;;;;;;;;5099717;28;20055;-64
2021/09/13 00:55:40;;;;;;;6.32;2.70;;;;;;;;;;5114487;28;20044;-64
2021/09/13 00:58:26;;;;;;;4.82;2.83;;;;;;;;;;5099439;28;20048;-64
2021/09/13 01:01:11;;;;;;;5.25;2.38;;;;;;;;;;5099467;28;20051;-63
2021/09/13 01:03:56;;;;;;;8.48;2.88;;;;;;;;;;5099516;28;20048;-64
2021/09/13 01:06:42;;;;;;;6.78;3.15;;;;;;;;;;5114784;28;20055;-64
2021/09/13 01:09:27;;;;;;;7.75;3.30;;;;;;;;;;5085416;28;20313;-64
2021/09/13 01:12:12;;;;;;;6.72;2.92;;;;;;;;;;5085262;28;20047;-64
2021/09/13 01:14:58;;;;;;;6.78;2.60;;;;;;;;;;5099284;28;20153;-63
2021/09/13 01:17:43;;;;;;;11.18;2.95;;;;;;;;;;5099342;28;20122;-64
2021/09/13 01:20:28;;;;;;;8.88;2.95;;;;;;;;;;5115053;28;20159;-63
2021/09/13 01:23:21;;;;;;;5.53;2.70;;;;;;;;;;5099302;28;20047;-64
2021/09/13 01:26:09;;;;;;;7.85;3.58;;;;;;;;;;5099135;28;20056;-64
2021/09/13 01:28:55;;;;;;;7.28;3.25;;;;;;;;;;5099044;28;20468;-64
2021/09/13 01:31:48;;;;;;;;;;;;;;;;;;5097578;28;20556;-64
2021/09/13 01:34:34;;;;;;;8.10;2.92;;;;;;;;;;5096974;28;19923;-64
2021/09/13 01:37:19;;;;;;;6.35;2.75;;;;;;;;;;5097163;28;20051;-64
2021/09/13 01:40:04;;;;;;;10.02;2.85;;;;;;;;;;5096992;28;20556;-64
2021/09/13 01:42:50;;;;;;;8.18;2.63;;;;;;;;;;5112626;28;20127;-64
2021/09/13 01:45:36;;;;;;;7.88;2.50;;;;;;;;;;5096637;28;20051;-64
2021/09/13 01:48:21;;;;;;;11.10;4.03;;;;;;;;;;5097088;28;20076;-64
2021/09/13 01:51:10;;;;;;;9.50;3.78;;;;;;;;;;5096829;28;20067;-64
2021/09/13 01:53:55;;;;;;;11.20;3.97;;;;;;;;;;5112501;28;20051;-64
2021/09/13 01:56:40;;;;;;;13.18;4.28;;;;;;;;;;5096848;28;20122;-64
2021/09/13 01:59:33;;;;;;;13.75;4.00;;;;;;;;;;5099973;28;20517;-65
2021/09/13 02:02:18;;;;;;;11.60;3.03;;;;;;;;;;5101145;28;20126;-64
2021/09/13 02:05:05;;;;;;;10.38;3.83;;;;;;;;;;5100684;28;20447;-64
2021/09/13 02:07:51;;;;;;;11.82;4.03;;;;;;;;;;5116492;28;20122;-64
2021/09/13 02:10:36;;;;;;;11.93;3.65;;;;;;;;;;5116476;28;20130;-64
2021/09/13 02:13:21;;;;;;;12.35;3.63;;;;;;;;;;5100014;28;20122;-64
2021/09/13 02:16:07;;;;;;;10.75;3.30;;;;;;;;;;5115113;28;20048;-64
2021/09/13 02:18:53;;;;;;;11.77;3.40;;;;;;;;;;5100809;28;20043;-65
2021/09/13 02:21:39;;;;;;;9.68;3.60;;;;;;;;;;5100664;28;20055;-64
2021/09/13 02:24:25;;;;;;;10.18;3.72;;;;;;;;;;5100233;28;20501;-64
2021/09/13 02:27:11;;;;;;;15.52;4.63;;;;;;;;;;5100695;28;20051;-64
2021/09/13 02:29:56;;;;;;;10.88;4.03;;;;;;;;;;5100562;28;20047;-63
2021/09/13 02:32:41;;;;;;;13.38;4.35;;;;;;;;;;5100319;28;20051;-64
2021/09/13 02:35:27;;;;;;;9.55;3.67;;;;;;;;;;5100082;28;20119;-63
2021/09/13 02:38:12;;;;;;;13.95;3.90;;;;;;;;;;5100399;28;20043;-64
2021/09/13 02:40:59;;;;;;;10.70;4.30;;;;;;;;;;5100171;28;20085;-64
2021/09/13 02:43:46;;;;;;;10.50;3.78;;;;;;;;;;5100139;28;20409;-64
2021/09/13 02:46:31;;;;;;;14.65;4.57;;;;;;;;;;5099967;28;20051;-64
2021/09/13 02:49:16;;;;;;;11.75;3.88;;;;;;;;;;5100355;28;20052;-64
2021/09/13 02:52:01;;;;;;;7.93;3.80;;;;;;;;;;5100152;28;20056;-64
2021/09/13 02:54:48;;;;;;;12.23;4.22;;;;;;;;;;5099732;28;20056;-64
2021/09/13 02:57:33;;;;;;;9.63;4.20;;;;;;;;;;5115380;28;20048;-64
2021/09/13 03:00:18;;;;;;;12.27;4.63;;;;;;;;;;5115544;28;20056;-64
2021/09/13 03:03:08;;;;;;;14.15;5.53;;;;;;;;;;5099924;28;20048;-64
2021/09/13 03:05:54;;;;;;;16.10;5.80;;;;;;;;;;5115087;28;20044;-63
2021/09/13 03:08:41;;;;;;;17.75;5.20;;;;;;;;;;5099473;28;20055;-64
2021/09/13 03:11:27;;;;;;;12.15;4.88;;;;;;;;;;5099770;28;20063;-64
2021/09/13 03:14:12;;;;;;;16.77;4.95;;;;;;;;;;5114760;28;20127;-64
2021/09/13 03:16:57;;;;;;;10.07;4.35;;;;;;;;;;5099823;28;20047;-64
2021/09/13 03:19:43;;;;;;;13.20;4.05;;;;;;;;;;5099624;28;20051;-64
2021/09/13 03:22:29;;;;;;;10.40;3.75;;;;;;;;;;5099519;28;20048;-64
2021/09/13 03:25:15;;;;;;;13.27;4.43;;;;;;;;;;5099337;28;20055;-64
2021/09/13 03:28:00;;;;;;;16.42;3.83;;;;;;;;;;5099625;28;20052;-64
2021/09/13 03:30:51;;;;;;;11.40;3.83;;;;;;;;;;5099230;28;20465;-64
2021/09/13 03:33:36;;;;;;;16.40;4.20;;;;;;;;;;5099160;28;20081;-63
2021/09/13 03:36:22;;;;;;;7.30;3.60;;;;;;;;;;5099208;28;20047;-64
2021/09/13 03:39:07;;;;;;;10.25;4.40;;;;;;;;;;5099127;28;20440;-64
2021/09/13 03:41:53;;;;;;;9.88;3.85;;;;;;;;;;5114725;28;20045;-64
2021/09/13 03:44:38;;;;;;;9.32;3.78;;;;;;;;;;5098534;28;20501;-64
2021/09/13 03:47:49;;;;;;;11.68;4.00;;;;;;;;;;5053162;28;20143;-61
2021/09/13 03:50:35;;;;;;;11.35;4.28;;;;;;;;;;5038985;28;20126;-61
2021/09/13 03:53:21;;;;;;;9.30;4.65;;;;;;;;;;5038675;28;20057;-61
2021/09/13 03:56:06;;;;;;;8.98;4.10;;;;;;;;;;5050474;28;20049;-62
2021/09/13 03:58:52;;;;;;;9.25;4.05;;;;;;;;;;5043074;28;20080;-63
2021/09/13 04:01:41;;;;;;;11.93;4.45;;;;;;;;;;5038505;28;20120;-61
2021/09/13 04:04:28;;;;;;;11.65;4.68;;;;;;;;;;5037942;28;20053;-61
2021/09/13 04:07:19;;;;;;;11.05;4.32;;;;;;;;;;5052405;28;20502;-61
2021/09/13 04:10:58;;;;;;;14.93;4.43;;;;;;;;;;5052251;28;20499;-62
2021/09/13 04:13:52;;;;;;;11.65;4.30;;;;;;;;;;5052145;28;20076;-61
2021/09/13 04:16:44;;;;;;;16.23;3.78;;;;;;;;;;5038028;28;20045;-61
2021/09/13 04:19:52;;;;;;;9.75;4.40;;;;;;;;;;5052229;28;20049;-62
2021/09/13 04:22:47;;;;;;;11.68;4.30;;;;;;;;;;5037590;28;20537;-62
2021/09/13 04:25:49;;;;;;;9.90;4.43;;;;;;;;;;5056910;28;20122;-64
2021/09/13 04:28:53;;;;;;;11.25;4.38;;;;;;;;;;5071549;28;20117;-64
2021/09/13 04:31:57;;;;;;;10.07;4.45;;;;;;;;;;5030776;28;20063;-62
2021/09/13 04:35:01;;;;;;;14.85;4.70;;;;;;;;;;5052579;28;20057;-62
2021/09/13 04:38:01;;;;;;;11.25;4.50;;;;;;;;;;5037918;28;20049;-61
2021/09/13 04:41:13;;;;;;;9.13;4.15;;;;;;;;;;5037751;28;20052;-62
2021/09/13 04:44:18;;;;;;;11.05;4.57;;;;;;;;;;5037590;28;20053;-62
2021/09/13 04:47:23;;;;;;;13.32;4.93;;;;;;;;;;5037372;28;20387;-63
2021/09/13 04:50:39;;;;;;;8.88;3.80;;;;;;;;;;5037669;28;20053;-63
2021/09/13 04:53:39;;;;;;;12.95;4.47;;;;;;;;;;5039371;28;20048;-61
2021/09/13 04:56:30;;;;;;;11.82;5.00;;;;;;;;;;5039215;28;20427;-61
2021/09/13 04:59:15;;;;;;;14.73;4.45;;;;;;;;;;5054346;28;20119;-62
2021/09/13 05:02:00;;;;;;;12.07;4.45;;;;;;;;;;5039152;28;20120;-62
2021/09/13 05:04:46;;;;;;;11.43;4.25;;;;;;;;;;5042911;28;20049;-63
2021/09/13 05:07:32;;;;;;;10.98;4.15;;;;;;;;;;5055346;28;20060;-61
2021/09/13 05:10:18;;;;;;;12.40;4.82;;;;;;;;;;5037360;28;20052;-62
2021/09/13 05:13:05;;;;;;;11.05;4.35;;;;;;;;;;5049584;28;20126;-63
2021/09/13 05:15:51;;;;;;;10.65;4.75;;;;;;;;;;5053340;28;20490;-63
2021/09/13 05:18:36;;;;;;;10.63;4.43;;;;;;;;;;5054764;28;20083;-63
2021/09/13 05:21:22;;;;;;;11.30;4.38;;;;;;;;;;5022964;28;20059;-62
2021/09/13 05:24:13;;;;;;;11.88;4.63;;;;;;;;;;5037000;28;20052;-61
2021/09/13 05:26:59;;;;;;;11.75;4.60;;;;;;;;;;5036916;28;20056;-62
2021/09/13 05:29:44;;;;;;;12.70;4.22;;;;;;;;;;5036815;28;20061;-62
2021/09/13 05:32:30;;;;;;;12.35;5.57;;;;;;;;;;5037090;28;20048;-62
2021/09/13 05:35:15;;;;;;;9.98;4.35;;;;;;;;;;5036562;28;20498;-62
2021/09/13 05:38:01;;;;;;;11.32;5.15;;;;;;;;;;5036691;28;20049;-62
2021/09/13 05:40:48;;;;;;;14.25;6.53;;;;;;;;;;5036961;28;20057;-62
2021/09/13 05:43:35;;;;;;;12.52;6.25;;;;;;;;;;5051287;28;20076;-62
2021/09/13 05:46:20;;;;;;;16.35;5.07;;;;;;;;;;5055212;28;20044;-63
2021/09/13 05:49:10;;;;;;;12.18;5.57;;;;;;;;;;5038139;28;20057;-61
2021/09/13 05:51:55;;;;;;;17.15;5.57;;;;;;;;;;5043907;28;20053;-62
2021/09/13 05:55:01;;;;;;;16.83;5.65;;;;;;;;;;5045038;28;20142;-61
2021/09/13 05:57:47;;;;;;;9.48;4.55;;;;;;;;;;5024537;28;20507;-63
2021/09/13 06:00:33;;;;;;;10.82;4.30;;;;;;;;;;5037934;28;20415;-62
2021/09/13 06:03:19;;;;;;;8.27;4.68;;;;;;;;;;5055876;28;20048;-63
2021/09/13 06:06:17;;;;;;;14.20;4.30;;;;;;;;;;5055015;28;20053;-62
2021/09/13 06:09:02;;;;;;;13.02;4.75;;;;;;;;;;5055132;28;20057;-62
2021/09/13 06:11:51;;;;;;;13.43;4.97;;;;;;;;;;5031952;28;20498;-61
2021/09/13 06:14:36;;;;;;;12.98;4.80;;;;;;;;;;5036358;28;20120;-61
2021/09/13 06:17:21;;;;;;;14.13;5.55;;;;;;;;;;5041710;28;20511;-63
2021/09/13 06:20:07;;;;;;;12.10;4.10;;;;;;;;;;5039812;28;20053;-62
2021/09/13 06:22:52;;;;;;;10.43;4.10;;;;;;;;;;5054255;28;20049;-61
2021/09/13 06:25:41;;;;;;;8.77;4.35;;;;;;;;;;5025753;28;20053;-63
2021/09/13 06:28:26;;;;;;;8.55;4.07;;;;;;;;;;5056156;28;20055;-62
2021/09/13 06:31:12;;;;;;;13.27;3.63;;;;;;;;;;5016099;28;20045;-61
2021/09/13 06:33:58;;;;;;;16.58;3.72;;;;;;;;;;5037700;28;20053;-62
2021/09/13 06:36:44;;;;;;;12.63;3.85;;;;;;;;;;5051482;28;20049;-61
2021/09/13 06:39:30;;;;;;;10.43;4.15;;;;;;;;;;5036793;28;20415;-61
2021/09/13 06:42:15;;;;;;;11.95;4.53;;;;;;;;;;5036509;28;20049;-62
2021/09/13 06:45:08;;;;;;;8.23;3.50;;;;;;;;;;5037786;28;20053;-62
2021/09/13 06:47:54;;;;;;;11.52;3.92;;;;;;;;;;5039938;28;20060;-63
2021/09/13 06:50:41;;;;;;;10.48;3.30;;;;;;;;;;5039809;28;20490;-62
2021/09/13 06:53:26;;;;;;;8.82;3.25;;;;;;;;;;5040326;28;20057;-62
2021/09/13 06:56:12;;;;;;;8.80;3.22;;;;;;;;;;5040887;28;20049;-61
2021/09/13 06:58:57;;;;;;;8.25;3.00;;;;;;;;;;5056138;28;20494;-61
2021/09/13 07:01:42;;;;;;;12.20;3.33;;;;;;;;;;5041485;28;20360;-61
2021/09/13 07:04:29;;;;;;;8.60;3.00;;;;;;;;;;5055940;28;20049;-61
2021/09/13 07:07:15;;;;;;;8.55;2.88;;;;;;;;;;5054642;28;20415;-62
2021/09/13 07:10:00;;;;;;;7.07;2.53;;;;;;;;;;5054743;28;20053;-62
2021/09/13 07:12:48;;;;;;;7.82;3.60;;;;;;;;;;5055567;28;20053;-61
2021/09/13 07:15:33;;;;;;;8.73;2.92;;;;;;;;;;5054868;28;20519;-61
2021/09/13 07:18:20;;;;;;;11.52;3.13;;;;;;;;;;5054582;28;20466;-60
2021/09/13 07:21:05;;;;;;;10.13;2.65;;;;;;;;;;5054435;28;20057;-62
2021/09/13 07:23:51;;;;;;;8.52;2.40;;;;;;;;;;5054139;28;20057;-62
2021/09/13 07:26:36;;;;;;;6.32;2.28;;;;;;;;;;5054062;28;20049;-61
2021/09/13 07:29:21;;;;;;;8.30;2.70;;;;;;;;;;5054252;28;20449;-63
2021/09/13 07:32:07;;;;;;;7.13;2.35;;;;;;;;;;5054059;28;20045;-61
2021/09/13 07:34:52;;;;;;;8.27;2.92;;;;;;;;;;5053724;28;20091;-62
2021/09/13 07:37:38;;;;;;;10.13;2.70;;;;;;;;;;5056122;28;20124;-63
2021/09/13 07:40:23;;;;;;;8.43;2.47;;;;;;;;;;5074698;28;20049;-62
2021/09/13 07:43:09;;;;;;;10.02;2.55;;;;;;;;;;5041670;28;20049;-62
2021/09/13 07:45:54;;;;;;;6.30;2.22;;;;;;;;;;5053663;28;20053;-62
2021/09/13 07:48:39;;;;;;;5.90;2.50;;;;;;;;;;5054059;28;20091;-61
2021/09/13 07:51:24;;;;;;;7.55;2.25;;;;;;;;;;5053951;28;20087;-62
2021/09/13 07:54:11;;;;;;;7.72;2.20;;;;;;;;;;5053580;28;20499;-62
2021/09/13 07:56:56;;;;;;;5.53;2.08;;;;;;;;;;5052972;28;20124;-62
2021/09/13 07:59:41;;;;;;;7.32;1.92;;;;;;;;;;5053563;28;20061;-63
2021/09/13 08:02:27;;;;;;;9.73;2.08;;;;;;;;;;5053762;28;20049;-63
2021/09/13 08:05:12;;;;;;;7.30;2.45;;;;;;;;;;5053304;28;20115;-62
2021/09/13 08:07:58;;;;;;;1.98;1.13;;;;;;;;;;5053440;28;20044;-62
2021/09/13 08:10:43;;;;;;;8.43;2.08;;;;;;;;;;5053593;28;20056;-62
2021/09/13 08:13:34;;;;;;;7.05;1.58;;;;;;;;;;5053246;28;20307;-61
2021/09/13 08:16:20;;;;;;;5.53;1.45;;;;;;;;;;5053030;28;20049;-61
2021/09/13 08:19:05;;;;;;;6.70;1.02;;;;;;;;;;5053388;28;20049;-61
2021/09/13 08:21:52;;;;;;;7.10;1.27;;;;;;;;;;5053256;28;20049;-61
2021/09/13 08:24:37;;;;;;;4.10;0.82;;;;;;;;;;5056393;28;20045;-63
2021/09/13 08:27:32;;;;;;;6.18;1.52;;;;;;;;;;5072138;28;20037;-63
2021/09/13 08:30:18;;;;;;;6.57;1.02;;;;;;;;;;5058141;28;20060;-63
2021/09/13 08:33:03;;;;;;;4.75;0.80;;;;;;;;;;5058152;28;20052;-63
2021/09/13 08:35:49;;;;;;;3.10;0.80;;;;;;;;;;5066954;28;20089;-62
2021/09/13 08:38:34;;;;;;;5.85;1.05;;;;;;;;;;5053017;28;20056;-62
2021/09/13 08:41:19;;;;;;;6.20;1.17;;;;;;;;;;5053394;28;20056;-62
2021/09/13 08:44:05;;;;;;;9.30;1.83;;;;;;;;;;5052842;28;20061;-62
2021/09/13 08:46:52;;;;;;;6.72;1.20;;;;;;;;;;5054919;28;20076;-63
2021/09/13 08:49:39;;;;;;;5.97;1.20;;;;;;;;;;5056262;28;20041;-62
2021/09/13 08:52:25;;;;;;;7.20;1.17;;;;;;;;;;5052911;28;20049;-61
2021/09/13 08:55:10;;;;;;;3.33;0.80;;;;;;;;;;5052376;28;20053;-61
2021/09/13 08:57:58;;;;;;;4.80;1.20;;;;;;;;;;5052305;28;20079;-61
2021/09/13 09:00:43;;;;;;;3.53;1.10;;;;;;;;;;5052856;28;20049;-61
2021/09/13 09:03:28;;;;;;;5.25;0.85;;;;;;;;;;5052328;28;20053;-61
2021/09/13 09:06:29;;;;;;;4.70;1.20;;;;;;;;;;5052319;28;20095;-62
2021/09/13 09:09:14;;;;;;;15.45;1.40;;;;;;;;;;5055194;28;20057;-62
2021/09/13 09:12:01;;;;;;;10.23;1.33;;;;;;;;;;5069836;28;20110;-63
2021/09/13 09:14:48;;;;;;;4.93;1.27;;;;;;;;;;5051654;28;20076;-62
2021/09/13 09:17:34;;;;;;;5.18;1.40;;;;;;;;;;5068426;28;20052;-63
2021/09/13 09:20:19;;;;;;;6.82;1.40;;;;;;;;;;5051992;28;20056;-61
2021/09/13 09:23:05;;;;;;;6.47;1.10;;;;;;;;;;5052029;28;20052;-62
2021/09/13 09:25:54;;;;;;;4.10;0.90;;;;;;;;;;5052066;28;20053;-62
2021/09/13 09:28:39;;;;;;;6.90;0.95;;;;;;;;;;5052098;28;20057;-61
2021/09/13 09:31:43;;;;;;;4.30;1.00;;;;;;;;;;5051954;28;20430;-62
2021/09/13 09:34:29;;;;;;;4.30;1.23;;;;;;;;;;5051785;28;20056;-62
2021/09/13 09:37:15;;;;;;;5.32;1.35;;;;;;;;;;5051842;28;20052;-62
2021/09/13 09:40:02;;;;;;;12.60;1.42;;;;;;;;;;5051805;28;20053;-62
2021/09/13 09:42:47;;;;;;;4.70;1.35;;;;;;;;;;5052012;28;20049;-61
2021/09/13 09:45:33;;;;;;;7.82;1.50;;;;;;;;;;5071887;22;20090;-64
2021/09/13 09:48:18;;;;;;;6.55;1.77;;;;;;;;;;5092062;28;20060;-64
2021/09/13 09:51:03;;;;;;;5.25;1.40;;;;;;;;;;5077226;28;20126;-64
2021/09/13 09:53:48;;;;;;;7.22;1.30;;;;;;;;;;5076861;28;20464;-64
2021/09/13 09:56:33;;;;;;;5.10;1.38;;;;;;;;;;5092038;28;20052;-64
2021/09/13 09:59:19;;;;;;;6.65;1.83;;;;;;;;;;5091941;28;20044;-64
2021/09/13 10:02:11;;;;;;;2.38;0.80;;;;;;;;;;5091931;28;20502;-64
2021/09/13 10:04:57;;;;;;;9.38;1.42;;;;;;;;;;5091602;28;20506;-64
2021/09/13 10:07:44;;;;;;;5.65;1.50;;;;;;;;;;5092035;28;20048;-64
2021/09/13 10:10:29;;;;;;;6.85;1.10;;;;;;;;;;5092294;28;20052;-64
2021/09/13 10:13:15;;;;;;;6.15;1.25;;;;;;;;;;5091745;28;20056;-64
2021/09/13 10:16:00;;;;;;;5.65;1.85;;;;;;;;;;5091910;28;20052;-64
2021/09/13 10:18:45;;;;;;;5.38;1.00;;;;;;;;;;5092367;28;20056;-64
2021/09/13 10:21:31;;;;;;;5.05;1.50;;;;;;;;;;5095699;28;20514;-64
2021/09/13 10:24:23;;;;;;;9.23;1.65;;;;;;;;;;5095635;28;20052;-64
2021/09/13 10:27:10;;;;;;;8.55;1.17;;;;;;;;;;5095672;28;20044;-64
2021/09/13 10:30:21;;;;;;;5.05;1.30;;;;;;;;;;5095512;28;20502;-63
2021/09/13 10:33:13;;;;;;;6.60;1.00;;;;;;;;;;5095651;28;20074;-64
2021/09/13 10:35:59;;;;;;;6.05;0.90;;;;;;;;;;5095284;28;20518;-64
2021/09/13 10:38:47;;;;;;;4.65;1.08;;;;;;;;;;5095558;28;20052;-64
2021/09/13 10:41:51;;;;;;;4.00;1.00;;;;;;;;;;5095832;28;20044;-64
2021/09/13 10:44:36;;;;;;;4.20;1.08;;;;;;;;;;5095268;28;20044;-64
2021/09/13 10:47:24;;;;;;;3.35;1.25;;;;;;;;;;5095137;28;20052;-64
2021/09/13 10:50:12;;;;;;;7.05;1.08;;;;;;;;;;5079996;28;20501;-64
2021/09/13 10:52:57;;;;;;;4.47;1.08;;;;;;;;;;5095331;28;20052;-64
2021/09/13 10:55:42;;;;;;;3.65;0.75;;;;;;;;;;5094892;28;20068;-64
2021/09/13 10:58:44;;;;;;;2.05;0.50;;;;;;;;;;5094955;28;20123;-64
2021/09/13 11:01:30;;;;;;;4.50;0.70;;;;;;;;;;5095196;28;20048;-64
2021/09/13 11:04:15;;;;;;;2.70;0.55;;;;;;;;;;5095233;28;20048;-64
2021/09/13 11:07:06;;;;;;;3.47;0.73;;;;;;;;;;5094863;28;20051;-64
2021/09/13 11:09:57;;;;;;;1.70;0.40;;;;;;;;;;5095064;28;20326;-64
2021/09/13 11:12:43;;;;;;;3.15;0.65;;;;;;;;;;5094925;28;20056;-65
2021/09/13 11:15:28;;;;;;;5.95;0.98;;;;;;;;;;5094372;28;20517;-65
2021/09/13 11:18:33;;;;;;;4.20;0.90;;;;;;;;;;5079964;28;20048;-64
2021/09/13 11:21:23;;;;;;;2.92;0.43;;;;;;;;;;5094632;28;20083;-64
2021/09/13 11:24:08;;;;;;;2.97;0.50;;;;;;;;;;5094336;28;20474;-64
2021/09/13 11:27:01;;;;;;;2.97;0.88;;;;;;;;;;5094576;28;20048;-65
2021/09/13 11:29:48;;;;;;;2.85;0.77;;;;;;;;;;5094412;28;20048;-64
2021/09/13 11:32:33;;;;;;;2.50;0.50;;;;;;;;;;5094625;28;20056;-65
2021/09/13 11:35:19;;;;;;;7.35;2.38;;;;;;;;;;5094253;28;20048;-64
2021/09/13 11:38:06;;;;;;;2.85;0.60;;;;;;;;;;5094552;28;20052;-64
2021/09/13 11:40:51;;;;;;;3.83;0.57;;;;;;;;;;5094717;28;20048;-64
2021/09/13 11:43:37;;;;;;;6.97;1.00;;;;;;;;;;5094147;28;20052;-64
2021/09/13 11:46:22;;;;;;;2.55;0.95;;;;;;;;;;5094008;28;20048;-64
2021/09/13 11:49:17;;;;;;;1.70;0.77;;;;;;;;;;5094333;28;20056;-64
2021/09/13 11:52:04;;;;;;;6.00;0.60;;;;;;;;;;5094179;28;20455;-64
2021/09/13 11:54:53;;;;;;;6.00;0.55;;;;;;;;;;5078605;28;20127;-64
2021/09/13 11:57:48;;;;;;;3.28;1.00;;;;;;;;;;5094119;28;20123;-64
2021/09/13 12:00:38;;;;;;;3.42;0.82;;;;;;;;;;5094113;28;20052;-64
2021/09/13 12:03:28;;;;;;;4.38;0.75;;;;;;;;;;5093773;28;20048;-64
2021/09/13 12:06:20;;;;;;;2.60;0.88;;;;;;;;;;5093893;28;20048;-65
2021/09/13 12:09:05;;;;;;;4.97;0.73;;;;;;;;;;5093702;28;20052;-64
2021/09/13 12:11:51;;;;;;;2.47;0.60;;;;;;;;;;5093537;28;20052;-64
2021/09/13 12:14:36;;;;;;;1.35;0.65;;;;;;;;;;5093487;28;20414;-64
2021/09/13 12:17:22;;;;;;;5.30;0.50;;;;;;;;;;5078284;28;20052;-64
2021/09/13 12:20:10;;;;;;;7.00;0.93;;;;;;;;;;5093415;28;20048;-64
2021/09/13 12:23:01;;;;;;;2.85;0.80;;;;;;;;;;5093518;28;20044;-64
2021/09/13 12:25:50;;;;;;;2.33;0.60;;;;;;;;;;5093146;28;20044;-63
2021/09/13 12:28:36;;;;;;;4.93;1.27;;;;;;;;;;5093165;28;20576;-63
2021/09/13 12:31:27;;;;;;;3.08;0.73;;;;;;;;;;5093412;28;20071;-64
2021/09/13 12:34:12;;;;;;;2.55;0.70;;;;;;;;;;5093377;28;20560;-64
2021/09/13 12:37:04;;;;;;;3.42;0.65;;;;;;;;;;5092872;28;20128;-63
2021/09/13 12:40:03;;;;;;;3.88;0.70;;;;;;;;;;5093212;28;20052;-64
2021/09/13 12:42:52;;;;;;;4.03;0.73;;;;;;;;;;5092506;28;20048;-64
2021/09/13 12:45:38;;;;;;;3.28;0.60;;;;;;;;;;5092734;28;20048;-64
2021/09/13 12:48:24;;;;;;;3.42;0.57;;;;;;;;;;5092910;28;20056;-64
2021/09/13 12:51:22;;;;;;;3.83;0.65;;;;;;;;;;5092900;28;20052;-64
2021/09/13 12:54:10;;;;;;;4.82;0.50;;;;;;;;;;5092746;28;20048;-64
2021/09/13 12:56:54;;;;;;;3.53;0.68;;;;;;;;;;5092600;28;20052;-64
2021/09/13 12:59:41;;;;;;;4.40;0.70;;;;;;;;;;5092616;28;20502;-64
2021/09/13 13:02:26;;;;;;;2.88;0.70;;;;;;;;;;5092682;28;20044;-64
2021/09/13 13:05:30;;;;;;;1.20;0.63;;;;;;;;;;5077198;28;20052;-64
2021/09/13 13:08:16;;;;;;;3.72;0.73;;;;;;;;;;5092542;28;20433;-65
2021/09/13 13:11:01;;;;;;;4.45;0.50;;;;;;;;;;5092821;28;20052;-65
2021/09/13 13:13:46;;;;;;;5.20;0.60;;;;;;;;;;5092276;28;20139;-64
2021/09/13 13:16:42;;;;;;;3.60;0.60;;;;;;;;;;5092325;28;20056;-65
2021/09/13 13:19:28;;;;;;;2.42;0.38;;;;;;;;;;5092544;28;20079;-65
2021/09/13 13:22:16;;;;;;;2.47;0.70;;;;;;;;;;5092381;28;20056;-65
2021/09/13 13:25:05;;;;;;;2.95;0.60;;;;;;;;;;5092078;28;20052;-63
2021/09/13 13:27:51;;;;;;;3.67;0.60;;;;;;;;;;5092258;28;20568;-63
2021/09/13 13:30:36;;;;;;;1.40;0.63;;;;;;;;;;5092354;28;20456;-63
2021/09/13 13:33:21;;;;;;;2.47;0.68;;;;;;;;;;5092170;28;20156;-63
2021/09/13 13:36:07;;;;;;;6.45;1.35;;;;;;;;;;5092009;28;20052;-63
2021/09/13 13:38:52;;;;;;;5.63;0.93;;;;;;;;;;5092128;28;20080;-63
2021/09/13 13:41:39;;;;;;;1.20;0.65;;;;;;;;;;5092182;28;20052;-63
2021/09/13 13:44:24;;;;;;;1.65;0.40;;;;;;;;;;5092156;28;20040;-64
2021/09/13 13:47:09;;;;;;;2.08;0.40;;;;;;;;;;5091982;28;20048;-63
2021/09/13 13:49:54;;;;;;;2.90;0.63;;;;;;;;;;5092007;28;20058;-64
2021/09/13 13:52:40;;;;;;;3.22;0.40;;;;;;;;;;5092191;28;20052;-63
2021/09/13 13:55:26;;;;;;;3.20;0.60;;;;;;;;;;5095314;28;20048;-63
2021/09/13 13:58:11;;;;;;;3.03;0.77;;;;;;;;;;5096053;28;20055;-63
2021/09/13 14:00:57;;;;;;;4.25;0.60;;;;;;;;;;5096380;28;20052;-63
2021/09/13 14:03:42;;;;;;;2.72;0.60;;;;;;;;;;5095962;28;20052;-64
2021/09/13 14:06:28;;;;;;;2.45;0.40;;;;;;;;;;5095911;28;20052;-63
2021/09/13 14:09:13;;;;;;;3.45;0.60;;;;;;;;;;5096190;28;20052;-63
2021/09/13 14:11:58;;;;;;;3.17;0.65;;;;;;;;;;5096038;28;20056;-64
2021/09/13 14:14:44;;;;;;;2.72;0.50;;;;;;;;;;5095644;28;20494;-63
2021/09/13 14:17:30;;;;;;;3.92;0.80;;;;;;;;;;5095897;28;20123;-63
2021/09/13 14:20:15;;;;;;;3.33;0.65;;;;;;;;;;5095914;28;20055;-63
2021/09/13 14:23:01;;;;;;;1.58;0.47;;;;;;;;;;5096049;28;20044;-63
2021/09/13 14:25:46;;;;;;;1.80;0.40;;;;;;;;;;5095587;28;20514;-63
2021/09/13 14:28:31;;;;;;;2.35;0.40;;;;;;;;;;5096075;28;20422;-63
2021/09/13 14:31:17;;;;;;;3.40;0.82;;;;;;;;;;5095794;28;20056;-63
2021/09/13 14:34:02;;;;;;;4.00;0.68;;;;;;;;;;5095684;28;20429;-63
2021/09/13 14:36:47;;;;;;;2.25;0.65;;;;;;;;;;5095846;28;20052;-63
2021/09/13 14:39:32;;;;;;;2.03;0.45;;;;;;;;;;5095575;28;20044;-63
2021/09/13 14:42:18;;;;;;;1.67;0.70;;;;;;;;;;5095556;28;20048;-63
2021/09/13 14:45:03;;;;;;;4.55;0.60;;;;;;;;;;5095163;28;20409;-63
2021/09/13 14:47:49;;;;;;;2.25;0.50;;;;;;;;;;5095242;28;20052;-63
2021/09/13 14:50:34;;;;;;;1.83;0.40;;;;;;;;;;5095427;28;20047;-63
2021/09/13 14:53:19;;;;;;;1.42;0.40;;;;;;;;;;5095343;28;20052;-63
2021/09/13 14:56:04;;;;;;;1.40;0.40;;;;;;;;;;5095141;28;20051;-63
2021/09/13 14:58:50;;;;;;;0.93;0.40;;;;;;;;;;5095211;28;20122;-63
2021/09/13 15:01:35;;;;;;;2.72;0.50;;;;;;;;;;5095167;28;20100;-63
2021/09/13 15:04:20;;;;;;;1.23;0.30;;;;;;;;;;5094714;28;20048;-64
2021/09/13 15:07:06;;;;;;;2.25;1.00;;;;;;;;;;5095002;28;20056;-63
2021/09/13 15:09:52;;;;;;;1.58;0.55;;;;;;;;;;5094997;28;20059;-63
2021/09/13 15:12:37;;;;;;;2.60;0.50;;;;;;;;;;5094806;28;20135;-63
2021/09/13 15:15:22;;;;;;;1.35;0.30;;;;;;;;;;5094653;28;20052;-63
2021/09/13 15:18:07;;;;;;;2.17;0.43;;;;;;;;;;5094690;28;20131;-63
2021/09/13 15:20:54;;;;;;;1.13;0.30;;;;;;;;;;5094778;28;20409;-64
2021/09/13 15:23:39;;;;;;;1.70;0.43;;;;;;;;;;5094267;28;20128;-63
2021/09/13 15:26:25;;;;;;;0.98;0.30;;;;;;;;;;5094674;28;20119;-63
2021/09/13 15:29:10;;;;;;;1.95;0.40;;;;;;;;;;5094619;28;20055;-64
2021/09/13 15:31:55;;;;;;;2.42;0.50;;;;;;;;;;5094440;28;20055;-63
2021/09/13 15:34:41;;;;;;;1.83;0.38;;;;;;;;;;5094243;28;20123;-63
2021/09/13 15:37:26;;;;;;;2.83;0.60;;;;;;;;;;5094225;28;20056;-63
2021/09/13 15:40:12;;;;;;;1.02;0.30;;;;;;;;;;5094195;28;20052;-63
2021/09/13 15:42:58;;;;;;;4.28;0.80;;;;;;;;;;5094407;28;20062;-64
2021/09/13 15:45:43;;;;;;;3.25;0.60;;;;;;;;;;5136293;22;20052;-62
2021/09/13 15:48:28;;;;;;;4.07;0.60;;;;;;;;;;5087443;28;20051;-63
2021/09/13 15:51:14;;;;;;;3.10;0.30;;;;;;;;;;5105200;28;20058;-63
2021/09/13 15:53:59;;;;;;;2.25;0.40;;;;;;;;;;5095332;28;20449;-61
2021/09/13 15:56:44;;;;;;;1.58;0.40;;;;;;;;;;5093870;28;20048;-61
2021/09/13 15:59:30;;;;;;;1.63;0.40;;;;;;;;;;5094188;28;20048;-62
2021/09/13 16:02:16;;;;;;;4.05;0.50;;;;;;;;;;5093957;28;20048;-61
2021/09/13 16:05:01;;;;;;;0.77;0.22;;;;;;;;;;5096989;28;20047;-63
2021/09/13 16:07:47;;;;;;;2.13;0.43;;;;;;;;;;5105565;28;20055;-62
2021/09/13 16:10:32;;;;;;;2.17;0.30;;;;;;;;;;5091358;28;20086;-61
2021/09/13 16:13:17;;;;;;;1.38;0.40;;;;;;;;;;5079356;28;20048;-61
2021/09/13 16:16:02;;;;;;;2.20;0.38;;;;;;;;;;5093592;28;20052;-61
2021/09/13 16:18:48;;;;;;;2.28;0.40;;;;;;;;;;5106953;28;20096;-62
2021/09/13 16:21:33;;;;;;;5.72;0.60;;;;;;;;;;5092275;28;20051;-61
2021/09/13 16:24:24;;;;;;;1.25;0.55;;;;;;;;;;5061350;28;20052;-61
2021/09/13 16:27:10;;;;;;;2.03;0.63;;;;;;;;;;5093284;28;20520;-61
2021/09/13 16:29:55;;;;;;;2.00;0.43;;;;;;;;;;5093394;28;20052;-60
2021/09/13 16:32:41;;;;;;;2.67;0.70;;;;;;;;;;5093403;28;20056;-61
2021/09/13 16:35:26;;;;;;;1.48;0.50;;;;;;;;;;5093139;28;20056;-62
2021/09/13 16:38:11;;;;;;;1.73;0.43;;;;;;;;;;5093122;28;20040;-61
2021/09/13 16:40:57;;;;;;;2.72;0.55;;;;;;;;;;5093336;28;20127;-62